Time;durP1;ratioP1;P1;durP2;ratioP2;P2;SDS_P1;SDS_P2;PMS_P1;PMS_P2;Temp;Humidity;BMP_temperature;BMP_pressure;BME280_temperature;BME280_humidity;BME280_pressure;Samples;Min_cycle;Max_cycle;Signal;HPM_P1;HPM_P2
2021/07/08 00:01:55;;;;;;;13.98;12.57;;;;;;;;;;5034025;28;20428;-67
2021/07/08 00:04:21;;;;;;;14.45;13.05;;;;;;;;;;5039032;28;20390;-67
2021/07/08 00:06:47;;;;;;;16.50;14.65;;;;;;;;;;5035465;28;20033;-67
2021/07/08 00:09:13;;;;;;;14.57;13.10;;;;;;;;;;5037142;28;20033;-67
2021/07/08 00:11:40;;;;;;;16.92;14.10;;;;;;;;;;5035380;28;20109;-67
2021/07/08 00:14:06;;;;;;;13.55;12.32;;;;;;;;;;5035303;28;20033;-67
2021/07/08 00:16:34;;;;;;;16.95;15.10;;;;;;;;;;5040407;28;20041;-67
2021/07/08 00:19:00;;;;;;;19.67;15.10;;;;;;;;;;5035930;28;20091;-67
2021/07/08 00:21:26;;;;;;;16.08;14.43;;;;;;;;;;5039734;28;20045;-67
2021/07/08 00:23:53;;;;;;;19.77;14.57;;;;;;;;;;5041096;28;20041;-67
2021/07/08 00:26:19;;;;;;;15.63;14.02;;;;;;;;;;5046369;28;20416;-67
2021/07/08 00:28:46;;;;;;;16.00;14.60;;;;;;;;;;5013196;28;20073;-67
2021/07/08 00:31:12;;;;;;;17.05;13.85;;;;;;;;;;5046208;28;20064;-67
2021/07/08 00:33:38;;;;;;;13.32;11.68;;;;;;;;;;5037659;28;23581;-67
2021/07/08 00:36:05;;;;;;;14.57;12.70;;;;;;;;;;5043296;28;20044;-67
2021/07/08 00:38:31;;;;;;;15.55;13.73;;;;;;;;;;5029703;28;20053;-67
2021/07/08 00:40:58;;;;;;;15.13;13.23;;;;;;;;;;5034985;28;20139;-67
2021/07/08 00:43:28;;;;;;;13.00;11.90;;;;;;;;;;5041056;28;20128;-67
2021/07/08 00:45:55;;;;;;;13.20;11.05;;;;;;;;;;5034902;28;20143;-67
2021/07/08 00:48:21;;;;;;;14.05;12.75;;;;;;;;;;5036547;28;20068;-67
2021/07/08 00:50:48;;;;;;;13.50;12.10;;;;;;;;;;5038471;28;20124;-67
2021/07/08 00:53:15;;;;;;;13.18;12.00;;;;;;;;;;5039389;28;20045;-67
2021/07/08 00:55:42;;;;;;;13.27;10.93;;;;;;;;;;5044743;28;20037;-67
2021/07/08 00:58:10;;;;;;;11.40;10.32;;;;;;;;;;5043514;28;20079;-67
2021/07/08 01:00:36;;;;;;;11.70;10.60;;;;;;;;;;5037964;28;20117;-67
2021/07/08 01:03:08;;;;;;;11.02;9.95;;;;;;;;;;5048820;28;20059;-67
2021/07/08 01:05:35;;;;;;;13.05;11.75;;;;;;;;;;5041203;28;20052;-67
2021/07/08 01:08:02;;;;;;;12.07;10.98;;;;;;;;;;5049028;28;20040;-67
2021/07/08 01:10:28;;;;;;;12.32;10.88;;;;;;;;;;5042453;28;20550;-67
2021/07/08 01:12:54;;;;;;;11.32;10.23;;;;;;;;;;5048195;28;20045;-67
2021/07/08 01:15:21;;;;;;;11.38;10.38;;;;;;;;;;5026350;28;20145;-67
2021/07/08 01:17:48;;;;;;;10.52;9.60;;;;;;;;;;5053237;28;20152;-67
2021/07/08 01:20:16;;;;;;;10.38;9.48;;;;;;;;;;5033325;28;20491;-67
2021/07/08 01:22:43;;;;;;;12.85;11.35;;;;;;;;;;5042995;28;20202;-67
2021/07/08 01:25:10;;;;;;;11.45;10.50;;;;;;;;;;5052360;28;20293;-67
2021/07/08 01:27:37;;;;;;;13.77;11.50;;;;;;;;;;5044769;28;20508;-67
2021/07/08 01:30:05;;;;;;;14.85;13.57;;;;;;;;;;5046743;28;20068;-67
2021/07/08 01:32:31;;;;;;;15.27;13.70;;;;;;;;;;5046905;28;20029;-67
2021/07/08 01:34:57;;;;;;;13.13;11.82;;;;;;;;;;5048129;28;20271;-67
2021/07/08 01:37:24;;;;;;;15.05;13.55;;;;;;;;;;5045202;28;20037;-67
2021/07/08 01:39:50;;;;;;;15.85;13.02;;;;;;;;;;5045291;28;20049;-67
2021/07/08 01:42:16;;;;;;;12.32;11.23;;;;;;;;;;5039841;28;20460;-67
2021/07/08 01:44:42;;;;;;;13.45;12.25;;;;;;;;;;5048331;28;20061;-67
2021/07/08 01:47:08;;;;;;;13.02;11.93;;;;;;;;;;5035481;28;20122;-67
2021/07/08 01:49:35;;;;;;;12.60;11.50;;;;;;;;;;5038318;28;20508;-67
2021/07/08 01:52:02;;;;;;;14.70;13.32;;;;;;;;;;5037569;28;20300;-67
2021/07/08 01:54:30;;;;;;;15.15;13.85;;;;;;;;;;5050638;28;20115;-67
2021/07/08 01:56:56;;;;;;;17.20;15.45;;;;;;;;;;5039701;28;20045;-67
2021/07/08 01:59:22;;;;;;;16.25;14.55;;;;;;;;;;5040827;28;20033;-67
2021/07/08 02:01:48;;;;;;;15.40;13.90;;;;;;;;;;5037764;28;20399;-67
2021/07/08 02:04:14;;;;;;;13.85;12.57;;;;;;;;;;5049058;28;20032;-67
2021/07/08 02:06:40;;;;;;;14.57;13.32;;;;;;;;;;5036349;28;20048;-67
2021/07/08 02:09:07;;;;;;;14.13;12.80;;;;;;;;;;5035394;28;20033;-67
2021/07/08 02:11:33;;;;;;;15.52;14.13;;;;;;;;;;5041547;28;20392;-67
2021/07/08 02:14:01;;;;;;;14.95;13.40;;;;;;;;;;5033331;28;20739;-67
2021/07/08 02:16:28;;;;;;;13.32;11.95;;;;;;;;;;5044804;28;20040;-67
2021/07/08 02:18:54;;;;;;;15.02;13.63;;;;;;;;;;5038873;28;20037;-67
2021/07/08 02:21:20;;;;;;;13.50;12.05;;;;;;;;;;5047718;28;20065;-67
2021/07/08 02:23:47;;;;;;;13.50;12.23;;;;;;;;;;5031330;28;20419;-67
2021/07/08 02:26:13;;;;;;;14.85;13.45;;;;;;;;;;5044408;28;20048;-67
2021/07/08 02:28:48;;;;;;;15.07;13.63;;;;;;;;;;5043630;28;20037;-67
2021/07/08 02:31:14;;;;;;;16.33;13.05;;;;;;;;;;5042147;28;20059;-67
2021/07/08 02:33:40;;;;;;;15.80;13.93;;;;;;;;;;5034221;28;20501;-67
2021/07/08 02:36:07;;;;;;;14.50;13.10;;;;;;;;;;5044622;28;20442;-67
2021/07/08 02:38:34;;;;;;;14.55;11.68;;;;;;;;;;5044941;28;20080;-67
2021/07/08 02:41:00;;;;;;;16.42;14.93;;;;;;;;;;5042647;28;20069;-67
2021/07/08 02:43:27;;;;;;;16.75;14.77;;;;;;;;;;5034941;28;20041;-68
2021/07/08 02:45:53;;;;;;;17.23;15.52;;;;;;;;;;5035985;28;20117;-67
2021/07/08 02:48:20;;;;;;;18.30;16.35;;;;;;;;;;5050064;28;20037;-67
2021/07/08 02:50:47;;;;;;;16.58;14.45;;;;;;;;;;5033966;28;20040;-68
2021/07/08 02:53:14;;;;;;;15.15;13.65;;;;;;;;;;5039389;28;20039;-68
2021/07/08 02:55:41;;;;;;;16.38;14.75;;;;;;;;;;5036667;28;20037;-68
2021/07/08 02:58:07;;;;;;;14.55;13.18;;;;;;;;;;5052260;28;20049;-68
2021/07/08 03:00:33;;;;;;;12.63;11.52;;;;;;;;;;5034457;28;20111;-68
2021/07/08 03:03:00;;;;;;;14.57;13.07;;;;;;;;;;5037995;28;20045;-68
2021/07/08 03:05:27;;;;;;;12.35;11.07;;;;;;;;;;5034056;28;20486;-68
2021/07/08 03:07:53;;;;;;;14.15;12.85;;;;;;;;;;5045081;28;20941;-68
2021/07/08 03:10:21;;;;;;;15.07;13.60;;;;;;;;;;5028563;28;20219;-67
2021/07/08 03:12:47;;;;;;;14.30;12.90;;;;;;;;;;5037623;28;20064;-68
2021/07/08 03:15:14;;;;;;;14.07;12.55;;;;;;;;;;5032666;28;20041;-67
2021/07/08 03:17:40;;;;;;;14.65;13.18;;;;;;;;;;5040109;28;20033;-67
2021/07/08 03:20:11;;;;;;;14.63;13.27;;;;;;;;;;5034612;28;20045;-67
2021/07/08 03:22:38;;;;;;;15.80;14.20;;;;;;;;;;5036279;28;20128;-67
2021/07/08 03:25:05;;;;;;;15.57;14.07;;;;;;;;;;5038725;28;20091;-67
2021/07/08 03:27:31;;;;;;;13.75;12.40;;;;;;;;;;5041652;28;20047;-67
2021/07/08 03:30:00;;;;;;;12.63;11.43;;;;;;;;;;5045107;28;20037;-67
2021/07/08 03:32:26;;;;;;;15.20;12.05;;;;;;;;;;5031293;28;20212;-67
2021/07/08 03:34:53;;;;;;;15.77;12.43;;;;;;;;;;5040987;28;20037;-67
2021/07/08 03:37:19;;;;;;;13.20;12.00;;;;;;;;;;5028207;28;20041;-67
2021/07/08 03:39:45;;;;;;;14.02;12.63;;;;;;;;;;5038653;28;20080;-67
2021/07/08 03:42:11;;;;;;;13.73;12.52;;;;;;;;;;5031957;28;20046;-66
2021/07/08 03:44:37;;;;;;;14.73;13.43;;;;;;;;;;5040068;28;20172;-66
2021/07/08 03:47:05;;;;;;;13.40;12.10;;;;;;;;;;5032195;28;20045;-67
2021/07/08 03:49:31;;;;;;;14.63;12.98;;;;;;;;;;5044322;28;20080;-67
2021/07/08 03:51:57;;;;;;;17.20;14.45;;;;;;;;;;5032162;28;20083;-67
2021/07/08 03:54:24;;;;;;;17.27;15.57;;;;;;;;;;5045504;28;20047;-67
2021/07/08 03:56:50;;;;;;;14.23;12.93;;;;;;;;;;5029568;28;20061;-67
2021/07/08 03:59:16;;;;;;;16.35;14.75;;;;;;;;;;5047155;28;20030;-67
2021/07/08 04:01:43;;;;;;;14.55;13.25;;;;;;;;;;5033826;28;20041;-67
2021/07/08 04:04:09;;;;;;;17.77;15.48;;;;;;;;;;5039004;28;20060;-67
2021/07/08 04:06:35;;;;;;;19.30;15.57;;;;;;;;;;5029646;28;20615;-67
2021/07/08 04:09:02;;;;;;;19.58;16.60;;;;;;;;;;5041905;28;20033;-67
2021/07/08 04:11:28;;;;;;;15.13;13.63;;;;;;;;;;5031333;28;20476;-67
2021/07/08 04:13:57;;;;;;;18.45;16.65;;;;;;;;;;5031988;28;20090;-67
2021/07/08 04:16:23;;;;;;;19.05;17.13;;;;;;;;;;5055347;28;20103;-67
2021/07/08 04:18:49;;;;;;;19.00;16.80;;;;;;;;;;5031930;28;20467;-67
2021/07/08 04:21:16;;;;;;;17.55;15.75;;;;;;;;;;5042197;28;20048;-67
2021/07/08 04:23:42;;;;;;;18.08;16.17;;;;;;;;;;5032487;28;20326;-67
2021/07/08 04:26:08;;;;;;;17.60;15.77;;;;;;;;;;5034816;28;20040;-67
2021/07/08 04:28:37;;;;;;;16.52;14.82;;;;;;;;;;5038868;28;20040;-67
2021/07/08 04:31:03;;;;;;;16.25;14.55;;;;;;;;;;5051622;28;20057;-67
2021/07/08 04:33:30;;;;;;;16.80;14.75;;;;;;;;;;5035690;28;20055;-67
2021/07/08 04:35:56;;;;;;;18.63;15.60;;;;;;;;;;5034990;28;20037;-67
2021/07/08 04:38:22;;;;;;;15.93;14.32;;;;;;;;;;5029441;28;20052;-67
2021/07/08 04:41:10;;;;;;;16.15;14.55;;;;;;;;;;5026527;28;20092;-67
2021/07/08 04:43:36;;;;;;;16.05;14.52;;;;;;;;;;5027431;28;20462;-67
2021/07/08 04:46:03;;;;;;;16.23;14.75;;;;;;;;;;5041303;28;20057;-67
2021/07/08 04:48:29;;;;;;;18.08;16.35;;;;;;;;;;5016743;28;20088;-67
2021/07/08 04:50:55;;;;;;;16.30;14.70;;;;;;;;;;5036368;28;20037;-67
2021/07/08 04:53:22;;;;;;;18.85;16.85;;;;;;;;;;5041754;28;20476;-67
2021/07/08 04:55:49;;;;;;;20.08;18.02;;;;;;;;;;5041476;28;20049;-67
2021/07/08 04:58:15;;;;;;;19.33;17.42;;;;;;;;;;5033706;28;20144;-68
2021/07/08 05:00:41;;;;;;;17.42;15.68;;;;;;;;;;5043768;28;20048;-67
2021/07/08 05:03:09;;;;;;;17.15;15.55;;;;;;;;;;5041615;28;20235;-67
2021/07/08 05:05:35;;;;;;;17.90;15.95;;;;;;;;;;5013702;28;20397;-67
2021/07/08 05:08:01;;;;;;;17.52;15.90;;;;;;;;;;5033318;28;20441;-68
2021/07/08 05:10:27;;;;;;;18.17;16.27;;;;;;;;;;5037783;28;20037;-68
2021/07/08 05:12:53;;;;;;;16.38;14.57;;;;;;;;;;5041050;28;20116;-68
2021/07/08 05:15:20;;;;;;;16.48;14.98;;;;;;;;;;5028471;28;20068;-68
2021/07/08 05:17:48;;;;;;;19.40;17.30;;;;;;;;;;5024053;28;20042;-68
2021/07/08 05:20:15;;;;;;;20.10;17.30;;;;;;;;;;5038167;28;20048;-68
2021/07/08 05:22:41;;;;;;;17.98;16.08;;;;;;;;;;5035315;28;20124;-68
2021/07/08 05:25:09;;;;;;;16.75;15.15;;;;;;;;;;5028752;28;20057;-68
2021/07/08 05:27:36;;;;;;;17.15;15.65;;;;;;;;;;5032266;28;20041;-68
2021/07/08 05:30:03;;;;;;;16.67;15.02;;;;;;;;;;5034094;28;20204;-68
2021/07/08 05:32:30;;;;;;;17.95;16.35;;;;;;;;;;5042927;28;20061;-68
2021/07/08 05:34:56;;;;;;;17.65;15.85;;;;;;;;;;5034330;28;20132;-68
2021/07/08 05:37:22;;;;;;;18.65;16.83;;;;;;;;;;5040550;28;20084;-68
2021/07/08 05:39:48;;;;;;;16.90;15.15;;;;;;;;;;5038968;28;20060;-68
2021/07/08 05:42:14;;;;;;;19.38;16.85;;;;;;;;;;5035434;28;20116;-68
2021/07/08 05:44:40;;;;;;;17.10;15.40;;;;;;;;;;5018974;28;20041;-69
2021/07/08 05:47:07;;;;;;;19.52;17.45;;;;;;;;;;5033478;28;20037;-69
2021/07/08 05:49:40;;;;;;;19.25;17.13;;;;;;;;;;5036583;28;20048;-69
2021/07/08 05:52:18;;;;;;;19.20;17.33;;;;;;;;;;5023584;28;20062;-69
2021/07/08 05:54:45;;;;;;;18.85;16.95;;;;;;;;;;5045606;28;20116;-69
2021/07/08 05:57:11;;;;;;;19.23;17.45;;;;;;;;;;5037300;28;20040;-69
2021/07/08 05:59:38;;;;;;;16.33;14.73;;;;;;;;;;5041109;28;20050;-69
2021/07/08 06:02:04;;;;;;;17.77;16.00;;;;;;;;;;5038486;28;20041;-69
2021/07/08 06:04:30;;;;;;;16.05;14.27;;;;;;;;;;5044615;28;20515;-69
2021/07/08 06:06:57;;;;;;;15.95;14.48;;;;;;;;;;5022975;28;20045;-69
2021/07/08 06:09:23;;;;;;;17.60;15.98;;;;;;;;;;5046965;28;20041;-69
2021/07/08 06:11:50;;;;;;;18.63;16.67;;;;;;;;;;5034403;28;20404;-69
2021/07/08 06:14:16;;;;;;;15.85;14.27;;;;;;;;;;5037183;28;20496;-69
2021/07/08 06:16:42;;;;;;;16.33;14.60;;;;;;;;;;5036707;28;20493;-69
2021/07/08 06:19:09;;;;;;;16.85;15.15;;;;;;;;;;5035613;28;20037;-69
2021/07/08 06:21:35;;;;;;;15.98;13.65;;;;;;;;;;5041955;28;20041;-69
2021/07/08 06:24:01;;;;;;;17.33;13.65;;;;;;;;;;5040264;28;20044;-70
2021/07/08 06:26:27;;;;;;;16.20;14.45;;;;;;;;;;5042810;28;20037;-69
2021/07/08 06:28:53;;;;;;;18.73;14.18;;;;;;;;;;5041871;28;20033;-70
2021/07/08 06:31:19;;;;;;;15.43;14.00;;;;;;;;;;5036848;28;20037;-71
2021/07/08 06:33:45;;;;;;;14.55;13.13;;;;;;;;;;5035300;28;20090;-70
2021/07/08 06:36:12;;;;;;;14.30;12.15;;;;;;;;;;5037076;28;20451;-71
2021/07/08 06:38:38;;;;;;;15.18;11.63;;;;;;;;;;5039956;28;20037;-71
2021/07/08 06:41:04;;;;;;;12.48;11.20;;;;;;;;;;5041002;28;20052;-71
2021/07/08 06:43:30;;;;;;;12.73;11.52;;;;;;;;;;5037670;28;20419;-71
2021/07/08 06:45:56;;;;;;;14.23;11.52;;;;;;;;;;5019574;28;20057;-71
2021/07/08 06:48:22;;;;;;;16.67;11.60;;;;;;;;;;5031294;28;20034;-71
2021/07/08 06:50:49;;;;;;;14.38;12.88;;;;;;;;;;5043637;28;20044;-71
2021/07/08 06:53:15;;;;;;;14.43;12.90;;;;;;;;;;5028918;28;20044;-72
2021/07/08 06:55:41;;;;;;;13.10;11.77;;;;;;;;;;5035103;28;20121;-72
2021/07/08 06:58:08;;;;;;;13.05;11.23;;;;;;;;;;5021819;28;20056;-68
2021/07/08 07:00:40;;;;;;;12.23;11.02;;;;;;;;;;5040881;28;20106;-68
2021/07/08 07:03:07;;;;;;;12.52;10.65;;;;;;;;;;5043600;28;20175;-72
2021/07/08 07:05:33;;;;;;;11.65;10.07;;;;;;;;;;5034685;28;20040;-72
2021/07/08 07:07:59;;;;;;;11.88;9.27;;;;;;;;;;5040437;28;20041;-72
2021/07/08 07:10:27;;;;;;;17.00;8.60;;;;;;;;;;5028194;28;20438;-72
2021/07/08 07:12:56;;;;;;;25.80;9.90;;;;;;;;;;5041119;28;20041;-72
2021/07/08 07:15:26;;;;;;;21.27;13.90;;;;;;;;;;5029613;28;20029;-72
2021/07/08 07:17:53;;;;;;;15.30;13.90;;;;;;;;;;5046894;28;20041;-72
2021/07/08 07:20:20;;;;;;;15.55;14.13;;;;;;;;;;5028916;28;20131;-73
2021/07/08 07:22:47;;;;;;;16.08;14.50;;;;;;;;;;5036404;28;20044;-72
2021/07/08 07:25:17;;;;;;;15.57;13.82;;;;;;;;;;5035971;28;20056;-72
2021/07/08 07:27:45;;;;;;;15.07;13.70;;;;;;;;;;5045314;28;20037;-72
2021/07/08 07:30:11;;;;;;;14.18;12.98;;;;;;;;;;5014837;28;20040;-72
2021/07/08 07:32:37;;;;;;;15.63;13.85;;;;;;;;;;5025060;28;20145;-73
2021/07/08 07:35:05;;;;;;;16.05;14.63;;;;;;;;;;5028496;28;20048;-73
2021/07/08 07:37:31;;;;;;;16.42;14.60;;;;;;;;;;5045976;28;20211;-73
2021/07/08 07:39:57;;;;;;;14.60;13.20;;;;;;;;;;5029864;28;20120;-73
2021/07/08 07:42:24;;;;;;;15.88;12.75;;;;;;;;;;5037024;28;20079;-72
2021/07/08 07:44:51;;;;;;;13.18;11.85;;;;;;;;;;5042466;28;20053;-73
2021/07/08 07:47:17;;;;;;;12.40;11.20;;;;;;;;;;5035792;28;20537;-73
2021/07/08 07:49:43;;;;;;;14.57;11.15;;;;;;;;;;5038065;28;20045;-73
2021/07/08 07:52:13;;;;;;;13.80;12.25;;;;;;;;;;5019339;28;20385;-73
2021/07/08 07:54:39;;;;;;;14.95;11.02;;;;;;;;;;5038433;28;20488;-72
2021/07/08 07:57:06;;;;;;;15.75;12.57;;;;;;;;;;5028753;28;20094;-73
2021/07/08 07:59:33;;;;;;;12.38;10.95;;;;;;;;;;5032986;28;20068;-73
2021/07/08 08:02:01;;;;;;;13.02;10.90;;;;;;;;;;5030312;28;20450;-73
2021/07/08 08:04:34;;;;;;;12.38;10.02;;;;;;;;;;5051860;28;20397;-73
2021/07/08 08:09:45;;;;;;;10.93;9.68;;;;;;;;;;5035327;28;20252;-73
2021/07/08 08:12:11;;;;;;;10.27;9.23;;;;;;;;;;5034799;28;20493;-73
2021/07/08 08:14:37;;;;;;;12.15;9.43;;;;;;;;;;5042898;28;20113;-73
2021/07/08 08:17:04;;;;;;;10.20;8.95;;;;;;;;;;5030734;28;20041;-73
2021/07/08 08:19:30;;;;;;;10.52;9.30;;;;;;;;;;5023438;28;20120;-73
2021/07/08 08:21:56;;;;;;;12.82;8.48;;;;;;;;;;5035617;28;20036;-73
2021/07/08 08:24:22;;;;;;;10.90;8.32;;;;;;;;;;5042995;28;20060;-73
2021/07/08 08:26:51;;;;;;;9.25;8.00;;;;;;;;;;5019037;28;22670;-73
2021/07/08 08:29:19;;;;;;;9.48;7.07;;;;;;;;;;5034134;28;20029;-74
2021/07/08 08:31:45;;;;;;;9.75;6.68;;;;;;;;;;5042045;28;20059;-74
2021/07/08 08:34:11;;;;;;;8.60;5.38;;;;;;;;;;5032064;28;20041;-74
2021/07/08 08:36:37;;;;;;;6.85;5.35;;;;;;;;;;5041234;28;20129;-74
2021/07/08 08:39:03;;;;;;;7.85;5.90;;;;;;;;;;5016272;28;20482;-74
2021/07/08 08:41:32;;;;;;;10.95;6.18;;;;;;;;;;5037189;28;20377;-74
2021/07/08 08:43:59;;;;;;;6.35;3.97;;;;;;;;;;5034622;28;20041;-74
2021/07/08 08:46:25;;;;;;;7.35;4.57;;;;;;;;;;5038103;28;20059;-73
2021/07/08 08:48:51;;;;;;;7.47;2.55;;;;;;;;;;5033725;28;20033;-74
2021/07/08 08:51:17;;;;;;;5.07;3.00;;;;;;;;;;5016348;28;20401;-74
2021/07/08 08:53:44;;;;;;;6.70;3.67;;;;;;;;;;5026744;28;20430;-74
2021/07/08 08:56:10;;;;;;;6.43;3.15;;;;;;;;;;5045329;28;20582;-74
2021/07/08 08:58:37;;;;;;;5.35;3.47;;;;;;;;;;5035071;28;20053;-74
2021/07/08 09:01:06;;;;;;;3.83;2.53;;;;;;;;;;5032351;28;20489;-74
2021/07/08 09:03:34;;;;;;;5.00;2.40;;;;;;;;;;5010678;28;20072;-74
2021/07/08 09:06:10;;;;;;;7.30;2.70;;;;;;;;;;5032901;28;20029;-75
2021/07/08 09:08:44;;;;;;;3.95;2.90;;;;;;;;;;5031559;28;20033;-75
2021/07/08 09:11:18;;;;;;;5.97;2.38;;;;;;;;;;5037382;28;20596;-75
2021/07/08 09:14:13;;;;;;;5.85;3.30;;;;;;;;;;5014834;28;20083;-75
2021/07/08 09:16:43;;;;;;;6.25;2.65;;;;;;;;;;5018605;28;20553;-75
2021/07/08 09:19:09;;;;;;;5.05;2.80;;;;;;;;;;5034965;28;20033;-74
2021/07/08 09:21:47;;;;;;;5.00;2.15;;;;;;;;;;5037595;28;20041;-74
2021/07/08 09:24:21;;;;;;;3.78;2.00;;;;;;;;;;5020708;28;20526;-73
2021/07/08 09:26:59;;;;;;;5.22;2.47;;;;;;;;;;5036826;28;20365;-74
2021/07/08 09:29:28;;;;;;;3.78;2.13;;;;;;;;;;5039262;28;20116;-74
2021/07/08 09:31:56;;;;;;;5.53;2.78;;;;;;;;;;5046048;28;20515;-74
2021/07/08 09:34:23;;;;;;;4.40;2.50;;;;;;;;;;5021518;28;20439;-74
2021/07/08 09:37:01;;;;;;;5.40;2.80;;;;;;;;;;5039192;28;20040;-74
2021/07/08 09:39:30;;;;;;;6.50;2.65;;;;;;;;;;5039589;28;20437;-74
2021/07/08 09:41:57;;;;;;;5.95;2.95;;;;;;;;;;5036071;28;20033;-73
2021/07/08 09:44:24;;;;;;;6.15;2.53;;;;;;;;;;5040988;28;20524;-73
2021/07/08 09:46:51;;;;;;;8.25;3.28;;;;;;;;;;5038081;28;20044;-73
2021/07/08 09:49:17;;;;;;;6.38;2.80;;;;;;;;;;5047345;28;20120;-73
2021/07/08 09:51:45;;;;;;;5.80;3.08;;;;;;;;;;5038290;28;20045;-73
2021/07/08 09:56:49;;;;;;;6.85;2.67;;;;;;;;;;5034143;28;20037;-74
2021/07/08 09:59:21;;;;;;;5.35;2.45;;;;;;;;;;5042924;28;20053;-74
2021/07/08 10:01:56;;;;;;;5.65;2.70;;;;;;;;;;5033156;28;20047;-73
2021/07/08 10:04:22;;;;;;;5.93;2.78;;;;;;;;;;5038143;28;20034;-74
2021/07/08 10:06:49;;;;;;;5.60;2.78;;;;;;;;;;5017371;28;20080;-74
2021/07/08 10:09:18;;;;;;;4.18;2.53;;;;;;;;;;5043138;28;20037;-74
2021/07/08 10:11:46;;;;;;;5.00;2.35;;;;;;;;;;5031202;28;20457;-73
2021/07/08 10:14:12;;;;;;;6.78;3.38;;;;;;;;;;5036010;28;20467;-73
2021/07/08 10:16:39;;;;;;;6.38;2.92;;;;;;;;;;5030715;28;20096;-73
2021/07/08 10:19:06;;;;;;;5.40;2.72;;;;;;;;;;5041917;28;20037;-73
2021/07/08 10:21:32;;;;;;;6.65;2.75;;;;;;;;;;5027507;28;20037;-73
2021/07/08 10:24:00;;;;;;;3.92;2.40;;;;;;;;;;5038505;28;20037;-73
2021/07/08 10:26:26;;;;;;;6.22;2.97;;;;;;;;;;5028784;28;20064;-73
2021/07/08 10:28:54;;;;;;;5.63;2.63;;;;;;;;;;5038072;28;20041;-73
2021/07/08 10:31:21;;;;;;;5.57;2.65;;;;;;;;;;5037235;28;20040;-73
2021/07/08 10:34:06;;;;;;;7.63;2.58;;;;;;;;;;5033275;28;20064;-73
2021/07/08 10:36:32;;;;;;;4.57;2.40;;;;;;;;;;5037258;28;20068;-73
2021/07/08 10:39:25;;;;;;;8.05;2.75;;;;;;;;;;5040507;28;20049;-73
2021/07/08 10:41:51;;;;;;;5.68;2.40;;;;;;;;;;5034657;28;20045;-73
2021/07/08 10:44:35;;;;;;;6.00;2.30;;;;;;;;;;5042762;28;20037;-72
2021/07/08 10:47:02;;;;;;;4.25;2.50;;;;;;;;;;5039571;28;20358;-71
2021/07/08 10:49:38;;;;;;;5.82;2.65;;;;;;;;;;5036898;28;20044;-71
2021/07/08 10:52:08;;;;;;;6.22;2.83;;;;;;;;;;5040444;28;20079;-71
2021/07/08 10:54:34;;;;;;;6.85;3.20;;;;;;;;;;5043367;28;20041;-71
2021/07/08 10:57:01;;;;;;;7.22;3.10;;;;;;;;;;5045955;28;20480;-71
2021/07/08 10:59:45;;;;;;;7.00;3.28;;;;;;;;;;5036643;28;20361;-72
2021/07/08 11:02:31;;;;;;;5.03;2.83;;;;;;;;;;5040674;28;20509;-72
2021/07/08 11:04:57;;;;;;;7.32;3.55;;;;;;;;;;5037675;28;20037;-72
2021/07/08 11:07:26;;;;;;;4.65;2.45;;;;;;;;;;5044920;28;20049;-72
2021/07/08 11:10:04;;;;;;;5.88;2.65;;;;;;;;;;5038769;28;20041;-73
2021/07/08 11:12:35;;;;;;;7.00;2.60;;;;;;;;;;5043140;28;20033;-73
2021/07/08 11:15:01;;;;;;;5.93;2.53;;;;;;;;;;5037016;28;20041;-73
2021/07/08 11:17:37;;;;;;;6.95;2.60;;;;;;;;;;5020880;28;20045;-73
2021/07/08 11:20:05;;;;;;;6.35;3.03;;;;;;;;;;5037297;28;20392;-73
2021/07/08 11:22:34;;;;;;;5.60;2.70;;;;;;;;;;5024619;28;20045;-73
2021/07/08 11:25:00;;;;;;;5.22;2.60;;;;;;;;;;5039433;28;20044;-73
2021/07/08 11:27:32;;;;;;;5.20;2.03;;;;;;;;;;5044671;28;20056;-73
2021/07/08 11:30:01;;;;;;;4.35;2.30;;;;;;;;;;5036153;28;20041;-73
2021/07/08 11:32:51;;;;;;;5.20;2.60;;;;;;;;;;5026804;28;20041;-73
2021/07/08 11:35:40;;;;;;;6.05;2.80;;;;;;;;;;5036664;28;20493;-73
2021/07/08 11:38:06;;;;;;;6.47;2.60;;;;;;;;;;5053522;28;20042;-73
2021/07/08 11:40:52;;;;;;;5.55;2.35;;;;;;;;;;5033658;28;20041;-73
2021/07/08 11:43:19;;;;;;;5.38;2.20;;;;;;;;;;5042770;28;20491;-73
2021/07/08 11:45:45;;;;;;;4.72;1.85;;;;;;;;;;5022034;28;20053;-73
2021/07/08 11:48:11;;;;;;;5.80;2.53;;;;;;;;;;5054263;28;20044;-73
2021/07/08 11:50:40;;;;;;;5.78;2.45;;;;;;;;;;5037559;28;20033;-73
2021/07/08 11:53:09;;;;;;;4.78;2.55;;;;;;;;;;5030693;28;20059;-73
2021/07/08 11:55:37;;;;;;;4.20;1.90;;;;;;;;;;5037917;28;20041;-73
2021/07/08 11:58:04;;;;;;;7.03;2.45;;;;;;;;;;5045909;28;20049;-73
2021/07/08 12:00:31;;;;;;;5.53;2.55;;;;;;;;;;5013999;28;20053;-72
2021/07/08 12:02:59;;;;;;;5.72;2.83;;;;;;;;;;5039254;28;20503;-72
2021/07/08 12:05:25;;;;;;;5.28;2.55;;;;;;;;;;5013845;28;20045;-72
2021/07/08 12:08:01;;;;;;;5.32;2.28;;;;;;;;;;5034118;28;20140;-72
2021/07/08 12:10:31;;;;;;;5.53;2.30;;;;;;;;;;5029903;28;20095;-72
2021/07/08 12:12:58;;;;;;;4.75;2.28;;;;;;;;;;5023425;28;20112;-72
2021/07/08 12:15:25;;;;;;;6.45;2.50;;;;;;;;;;5013672;28;20037;-71
2021/07/08 12:17:52;;;;;;;9.82;2.72;;;;;;;;;;5035952;28;20033;-72
2021/07/08 12:20:19;;;;;;;5.80;2.60;;;;;;;;;;5034068;28;20080;-72
2021/07/08 12:22:54;;;;;;;6.45;2.63;;;;;;;;;;5020500;28;20056;-72
2021/07/08 12:25:21;;;;;;;4.20;2.25;;;;;;;;;;5040901;28;20408;-72
2021/07/08 12:27:48;;;;;;;4.88;2.25;;;;;;;;;;5033517;28;20048;-72
2021/07/08 12:30:18;;;;;;;5.28;2.22;;;;;;;;;;5025042;28;20045;-72
2021/07/08 12:32:44;;;;;;;3.72;2.30;;;;;;;;;;5030730;28;21121;-72
2021/07/08 12:35:10;;;;;;;4.32;2.10;;;;;;;;;;5037283;28;20536;-71
2021/07/08 12:37:39;;;;;;;4.80;2.50;;;;;;;;;;5030783;28;20040;-71
2021/07/08 12:40:14;;;;;;;4.82;2.22;;;;;;;;;;5016340;28;20437;-71
2021/07/08 12:42:40;;;;;;;5.45;2.17;;;;;;;;;;5036110;28;20036;-71
2021/07/08 12:45:08;;;;;;;5.38;2.33;;;;;;;;;;5040574;28;20037;-71
2021/07/08 12:47:40;;;;;;;4.30;1.90;;;;;;;;;;5033188;28;20060;-71
2021/07/08 12:50:07;;;;;;;4.65;2.10;;;;;;;;;;5044257;28;20041;-71
2021/07/08 12:52:36;;;;;;;2.92;1.67;;;;;;;;;;5037504;28;20536;-71
2021/07/08 12:55:03;;;;;;;5.25;2.03;;;;;;;;;;5033586;28;20045;-71
2021/07/08 12:57:29;;;;;;;4.32;1.92;;;;;;;;;;5032888;28;20048;-71
2021/07/08 12:59:57;;;;;;;4.63;1.67;;;;;;;;;;5034124;28;20050;-71
2021/07/08 13:02:24;;;;;;;2.65;1.52;;;;;;;;;;5038106;28;20518;-71
2021/07/08 13:05:06;;;;;;;3.28;1.85;;;;;;;;;;5035987;28;20492;-71
2021/07/08 13:07:36;;;;;;;5.35;2.20;;;;;;;;;;5027406;28;20073;-71
2021/07/08 13:10:05;;;;;;;2.78;2.15;;;;;;;;;;5044984;28;20217;-70
2021/07/08 13:12:31;;;;;;;4.03;1.90;;;;;;;;;;5032799;28;20425;-71
2021/07/08 13:14:57;;;;;;;2.17;1.08;;;;;;;;;;5022929;28;20116;-71
2021/07/08 13:17:27;;;;;;;4.22;1.48;;;;;;;;;;5039238;28;20080;-71
2021/07/08 13:20:01;;;;;;;5.03;1.63;;;;;;;;;;5038655;28;20068;-71
2021/07/08 13:22:36;;;;;;;2.70;1.33;;;;;;;;;;5033826;28;20037;-72
2021/07/08 13:25:12;;;;;;;7.97;5.63;;;;;;;;;;5030099;28;20044;-72
2021/07/08 13:27:38;;;;;;;7.32;6.45;;;;;;;;;;5034316;28;20432;-71
2021/07/08 13:30:31;;;;;;;8.05;6.57;;;;;;;;;;5034333;28;20048;-71
2021/07/08 13:33:01;;;;;;;10.00;6.43;;;;;;;;;;5036813;28;20060;-67
2021/07/08 13:35:50;;;;;;;9.32;7.20;;;;;;;;;;5027335;28;20112;-67
2021/07/08 13:38:35;;;;;;;8.02;6.00;;;;;;;;;;5035250;28;20041;-67
2021/07/08 13:41:02;;;;;;;6.68;6.07;;;;;;;;;;5039664;28;20412;-68
2021/07/08 13:43:42;;;;;;;6.45;5.72;;;;;;;;;;5032412;28;20049;-69
2021/07/08 13:46:09;;;;;;;8.77;5.93;;;;;;;;;;5039448;28;20484;-67
2021/07/08 13:48:36;;;;;;;7.97;5.40;;;;;;;;;;5034866;28;20425;-68
2021/07/08 13:51:04;;;;;;;6.80;4.88;;;;;;;;;;5031139;28;20060;-67
2021/07/08 13:53:30;;;;;;;9.30;5.15;;;;;;;;;;5042262;28;20124;-67
2021/07/08 13:55:56;;;;;;;6.82;4.13;;;;;;;;;;5034970;28;20133;-68
2021/07/08 13:58:23;;;;;;;5.90;3.83;;;;;;;;;;5040834;28;20136;-67
2021/07/08 14:00:49;;;;;;;7.30;4.47;;;;;;;;;;5028388;28;20049;-68
2021/07/08 14:03:15;;;;;;;7.03;3.78;;;;;;;;;;5046303;28;20045;-68
2021/07/08 14:05:42;;;;;;;6.88;3.53;;;;;;;;;;5037287;28;20476;-68
2021/07/08 14:08:08;;;;;;;4.60;3.88;;;;;;;;;;5053615;28;20112;-68
2021/07/08 14:10:34;;;;;;;6.28;3.60;;;;;;;;;;5033932;28;20485;-68
2021/07/08 14:13:02;;;;;;;5.32;3.80;;;;;;;;;;5038586;28;20392;-68
2021/07/08 14:15:28;;;;;;;4.03;3.55;;;;;;;;;;5034005;28;20041;-68
2021/07/08 14:17:55;;;;;;;6.15;3.80;;;;;;;;;;5047943;28;21273;-68
2021/07/08 14:20:21;;;;;;;4.90;3.50;;;;;;;;;;5040515;28;20047;-68
2021/07/08 14:22:47;;;;;;;5.97;4.07;;;;;;;;;;5045962;28;20116;-68
2021/07/08 14:25:14;;;;;;;3.97;3.42;;;;;;;;;;5045878;28;20065;-68
2021/07/08 14:27:40;;;;;;;6.40;3.53;;;;;;;;;;5038817;28;20104;-68
2021/07/08 14:30:07;;;;;;;4.80;3.35;;;;;;;;;;5048153;28;20060;-69
2021/07/08 14:32:33;;;;;;;3.50;2.88;;;;;;;;;;5036545;28;20050;-68
2021/07/08 14:34:59;;;;;;;4.97;3.20;;;;;;;;;;5040900;28;20052;-68
2021/07/08 14:37:26;;;;;;;4.43;2.85;;;;;;;;;;5037973;28;20091;-68
2021/07/08 14:39:52;;;;;;;5.88;3.17;;;;;;;;;;5037718;28;20028;-68